Nome の空港の天気 - METARとTAF

Nome, Nome Airport ( PAOM / OME ) - アメリカ アラスカ州Nome
飛行場実況気象(Metar)
観測時間06/24 01:53 AKDT (06/24 09:53 UTC)
風向・風速東南東 2m/s
視程10km以上
天気現象
全天の8割程度の雲 雲底高度 850m
気温10℃
湿度83%
気圧1021.2hPa
METARPAOM 240953Z AUTO 11004KT 10SM BKN028 10/07 A3016 RMK AO2 SLP212 T01000072 TSNO
過去の天気等 Google飛行場航空写真 Wunderground天気予報

過去48時間のMETAR

飛行場予報(TAF)
発表時間: 6/23 21:21 AKDT (6/24 05:21 UTC)
予報対象時間: 23日22時 AKDT ~ 24日22時 AKDT
風向・風速西南西 4m/s
視程10km以上
少しの雲 雲底高度 460m
全天の8割程度の雲 雲底高度 910m
24日2時 AKDT から
風向・風速北 3m/s
視程10km以上
全天の8割程度の雲 雲底高度 910m
全天を覆う雲 雲底高度 3050m
24日10時 AKDT から
風向・風速東北東 3m/s
視程10km以上
全天の8割程度の雲 雲底高度 1520m
PAOM 240521Z 2406/2506 24007KT P6SM FEW015 BKN030
FM241000 01005KT P6SM BKN030 OVC100
FM241800 07005KT P6SM BKN050